sensor_id;sensor_type;location;lat;lon;timestamp;pressure;altitude;pressure_sealevel;temperature;humidity
31681;BME280;18281;51.364;9.566;2023-04-27T00:00:26;100324.44;;;2.12;93.92
31681;BME280;18281;51.364;9.566;2023-04-27T00:02:52;100321.91;;;2.09;94.64
31681;BME280;18281;51.364;9.566;2023-04-27T00:05:17;100321.13;;;2.04;94.10
31681;BME280;18281;51.364;9.566;2023-04-27T00:07:43;100321.13;;;2.04;95.85
31681;BME280;18281;51.364;9.566;2023-04-27T00:10:08;100324.59;;;2.03;95.58
31681;BME280;18281;51.364;9.566;2023-04-27T00:12:34;100313.41;;;2.01;96.09
31681;BME280;18281;51.364;9.566;2023-04-27T00:14:59;100321.22;;;1.98;95.62
31681;BME280;18281;51.364;9.566;2023-04-27T00:17:25;100319.50;;;1.98;95.80
31681;BME280;18281;51.364;9.566;2023-04-27T00:19:50;100315.16;;;1.99;95.31
31681;BME280;18281;51.364;9.566;2023-04-27T00:22:16;100313.44;;;1.98;95.24
31681;BME280;18281;51.364;9.566;2023-04-27T00:24:41;100312.59;;;1.97;96.11
31681;BME280;18281;51.364;9.566;2023-04-27T00:27:07;100314.41;;;1.92;95.85
31681;BME280;18281;51.364;9.566;2023-04-27T00:29:32;100316.97;;;1.95;96.28
31681;BME280;18281;51.364;9.566;2023-04-27T00:31:57;100311.75;;;1.97;95.52
31681;BME280;18281;51.364;9.566;2023-04-27T00:34:23;100311.72;;;1.98;95.54
31681;BME280;18281;51.364;9.566;2023-04-27T00:36:48;100305.72;;;1.95;95.94
31681;BME280;18281;51.364;9.566;2023-04-27T00:39:13;100306.69;;;1.89;96.61
31681;BME280;18281;51.364;9.566;2023-04-27T00:41:39;100309.28;;;1.89;97.20
31681;BME280;18281;51.364;9.566;2023-04-27T00:44:04;100310.13;;;1.88;97.01
31681;BME280;18281;51.364;9.566;2023-04-27T00:46:31;100307.50;;;1.91;96.11
31681;BME280;18281;51.364;9.566;2023-04-27T00:48:57;100307.56;;;1.88;96.91
31681;BME280;18281;51.364;9.566;2023-04-27T00:51:23;100305.84;;;1.88;96.25
31681;BME280;18281;51.364;9.566;2023-04-27T00:53:52;100306.72;;;1.87;96.55
31681;BME280;18281;51.364;9.566;2023-04-27T00:56:18;100311.88;;;1.87;96.13
31681;BME280;18281;51.364;9.566;2023-04-27T00:58:44;100317.94;;;1.86;96.84
31681;BME280;18281;51.364;9.566;2023-04-27T01:01:09;100310.31;;;1.77;97.81
31681;BME280;18281;51.364;9.566;2023-04-27T01:03:35;100311.06;;;1.84;97.64
31681;BME280;18281;51.364;9.566;2023-04-27T01:06:00;100309.38;;;1.81;97.52
31681;BME280;18281;51.364;9.566;2023-04-27T01:08:27;100309.38;;;1.81;97.74
31681;BME280;18281;51.364;9.566;2023-04-27T01:10:52;100312.88;;;1.79;98.04
31681;BME280;18281;51.364;9.566;2023-04-27T01:13:18;100318.03;;;1.79;96.64
31681;BME280;18281;51.364;9.566;2023-04-27T01:15:43;100313.75;;;1.76;98.05
31681;BME280;18281;51.364;9.566;2023-04-27T01:18:08;100315.47;;;1.77;97.65
31681;BME280;18281;51.364;9.566;2023-04-27T01:20:34;100324.13;;;1.76;97.70
31681;BME280;18281;51.364;9.566;2023-04-27T01:23:00;100321.50;;;1.78;97.36
31681;BME280;18281;51.364;9.566;2023-04-27T01:25:25;100324.13;;;1.76;97.98
31681;BME280;18281;51.364;9.566;2023-04-27T01:27:51;100325.03;;;1.72;99.10
31681;BME280;18281;51.364;9.566;2023-04-27T01:30:16;100325.00;;;1.74;99.01
31681;BME280;18281;51.364;9.566;2023-04-27T01:32:41;100319.84;;;1.72;99.04
31681;BME280;18281;51.364;9.566;2023-04-27T01:35:07;100323.28;;;1.76;97.15
31681;BME280;18281;51.364;9.566;2023-04-27T01:37:33;100324.16;;;1.73;97.31
31681;BME280;18281;51.364;9.566;2023-04-27T01:39:59;100329.41;;;1.70;98.80
31681;BME280;18281;51.364;9.566;2023-04-27T01:42:24;100337.13;;;1.71;98.55
31681;BME280;18281;51.364;9.566;2023-04-27T01:44:50;100330.25;;;1.70;98.96
31681;BME280;18281;51.364;9.566;2023-04-27T01:47:15;100331.97;;;1.70;99.30
31681;BME280;18281;51.364;9.566;2023-04-27T01:49:41;100336.31;;;1.68;100.00
31681;BME280;18281;51.364;9.566;2023-04-27T01:52:07;100341.47;;;1.69;100.00
31681;BME280;18281;51.364;9.566;2023-04-27T01:54:32;100341.53;;;1.65;99.04
31681;BME280;18281;51.364;9.566;2023-04-27T01:56:57;100340.66;;;1.67;98.80
31681;BME280;18281;51.364;9.566;2023-04-27T01:59:23;100342.34;;;1.67;99.22
31681;BME280;18281;51.364;9.566;2023-04-27T02:01:48;100346.66;;;1.68;98.89
31681;BME280;18281;51.364;9.566;2023-04-27T02:04:13;100348.41;;;1.67;98.90
31681;BME280;18281;51.364;9.566;2023-04-27T02:06:39;100348.44;;;1.63;100.00
31681;BME280;18281;51.364;9.566;2023-04-27T02:09:05;100351.03;;;1.63;100.00
31681;BME280;18281;51.364;9.566;2023-04-27T02:11:30;100357.13;;;1.62;99.81
31681;BME280;18281;51.364;9.566;2023-04-27T02:13:56;100356.25;;;1.61;99.90
31681;BME280;18281;51.364;9.566;2023-04-27T02:16:21;100357.06;;;1.65;99.72
31681;BME280;18281;51.364;9.566;2023-04-27T02:18:46;100364.00;;;1.61;99.86
31681;BME280;18281;51.364;9.566;2023-04-27T02:21:13;100361.47;;;1.58;100.00
31681;BME280;18281;51.364;9.566;2023-04-27T02:23:38;100361.47;;;1.58;100.00
31681;BME280;18281;51.364;9.566;2023-04-27T02:26:04;100369.22;;;1.60;99.68
31681;BME280;18281;51.364;9.566;2023-04-27T02:28:30;100359.69;;;1.60;99.85
31681;BME280;18281;51.364;9.566;2023-04-27T02:30:56;100367.47;;;1.59;99.89
31681;BME280;18281;51.364;9.566;2023-04-27T02:33:21;100369.22;;;1.60;99.97
31681;BME280;18281;51.364;9.566;2023-04-27T02:35:47;100372.66;;;1.59;100.00
31681;BME280;18281;51.364;9.566;2023-04-27T02:38:12;100372.63;;;1.60;99.63
31681;BME280;18281;51.364;9.566;2023-04-27T02:40:37;100372.66;;;1.59;99.42
31681;BME280;18281;51.364;9.566;2023-04-27T02:43:03;100372.63;;;1.60;99.58
31681;BME280;18281;51.364;9.566;2023-04-27T02:45:28;100377.84;;;1.57;100.00
31681;BME280;18281;51.364;9.566;2023-04-27T02:47:54;100384.78;;;1.53;99.91
31681;BME280;18281;51.364;9.566;2023-04-27T02:50:19;100389.94;;;1.58;100.00
31681;BME280;18281;51.364;9.566;2023-04-27T02:52:44;100383.94;;;1.54;100.00
31681;BME280;18281;51.364;9.566;2023-04-27T02:55:10;100398.63;;;1.52;100.00
31681;BME280;18281;51.364;9.566;2023-04-27T02:57:35;100389.16;;;1.51;100.00
31681;BME280;18281;51.364;9.566;2023-04-27T03:00:02;100398.59;;;1.56;100.00
31681;BME280;18281;51.364;9.566;2023-04-27T03:02:29;100390.88;;;1.52;100.00
31681;BME280;18281;51.364;9.566;2023-04-27T03:04:54;100389.16;;;1.51;100.00
31681;BME280;18281;51.364;9.566;2023-04-27T03:07:20;100387.38;;;1.53;100.00
31681;BME280;18281;51.364;9.566;2023-04-27T03:09:46;100386.56;;;1.51;100.00
31681;BME280;18281;51.364;9.566;2023-04-27T03:12:11;100387.47;;;1.47;100.00
31681;BME280;18281;51.364;9.566;2023-04-27T03:14:36;100389.16;;;1.50;100.00
31681;BME280;18281;51.364;9.566;2023-04-27T03:17:02;100386.59;;;1.50;100.00
31681;BME280;18281;51.364;9.566;2023-04-27T03:19:27;100388.28;;;1.49;100.00
31681;BME280;18281;51.364;9.566;2023-04-27T03:21:53;100390.88;;;1.49;100.00
31681;BME280;18281;51.364;9.566;2023-04-27T03:24:18;100391.75;;;1.50;100.00
31681;BME280;18281;51.364;9.566;2023-04-27T03:26:43;100396.09;;;1.48;100.00
31681;BME280;18281;51.364;9.566;2023-04-27T03:29:09;100386.59;;;1.48;100.00
31681;BME280;18281;51.364;9.566;2023-04-27T03:31:34;100382.28;;;1.49;100.00
31681;BME280;18281;51.364;9.566;2023-04-27T03:34:00;100388.28;;;1.49;100.00
31681;BME280;18281;51.364;9.566;2023-04-27T03:36:25;100389.19;;;1.48;100.00
31681;BME280;18281;51.364;9.566;2023-04-27T03:38:51;100388.34;;;1.46;100.00
31681;BME280;18281;51.364;9.566;2023-04-27T03:41:16;100388.34;;;1.46;100.00
31681;BME280;18281;51.364;9.566;2023-04-27T03:43:41;100388.38;;;1.45;100.00
31681;BME280;18281;51.364;9.566;2023-04-27T03:46:07;100386.66;;;1.42;100.00
31681;BME280;18281;51.364;9.566;2023-04-27T03:48:32;100384.94;;;1.41;100.00
31681;BME280;18281;51.364;9.566;2023-04-27T03:50:59;100380.63;;;1.40;100.00
31681;BME280;18281;51.364;9.566;2023-04-27T03:53:25;100386.72;;;1.39;100.00
31681;BME280;18281;51.364;9.566;2023-04-27T03:55:50;100380.69;;;1.37;100.00
31681;BME280;18281;51.364;9.566;2023-04-27T03:58:16;100377.22;;;1.40;100.00
31681;BME280;18281;51.364;9.566;2023-04-27T04:00:42;100379.81;;;1.38;100.00
31681;BME280;18281;51.364;9.566;2023-04-27T04:03:07;100375.50;;;1.38;100.00
31681;BME280;18281;51.364;9.566;2023-04-27T04:05:33;100372.06;;;1.36;100.00
31681;BME280;18281;51.364;9.566;2023-04-27T04:07:58;100377.28;;;1.35;100.00
31681;BME280;18281;51.364;9.566;2023-04-27T04:10:24;100379.00;;;1.33;100.00
31681;BME280;18281;51.364;9.566;2023-04-27T04:12:50;100379.91;;;1.29;100.00
31681;BME280;18281;51.364;9.566;2023-04-27T04:15:16;100374.75;;;1.29;100.00
31681;BME280;18281;51.364;9.566;2023-04-27T04:17:41;100377.34;;;1.27;100.00
31681;BME280;18281;51.364;9.566;2023-04-27T04:20:07;100383.41;;;1.26;100.00
31681;BME280;18281;51.364;9.566;2023-04-27T04:22:33;100369.63;;;1.26;100.00
31681;BME280;18281;51.364;9.566;2023-04-27T04:24:58;100372.16;;;1.29;100.00
31681;BME280;18281;51.364;9.566;2023-04-27T04:27:24;100381.66;;;1.28;100.00
31681;BME280;18281;51.364;9.566;2023-04-27T04:29:49;100385.13;;;1.27;100.00
31681;BME280;18281;51.364;9.566;2023-04-27T04:32:14;100389.44;;;1.25;100.00
31681;BME280;18281;51.364;9.566;2023-04-27T04:34:42;100393.81;;;1.22;100.00
31681;BME280;18281;51.364;9.566;2023-04-27T04:37:08;100390.31;;;1.23;100.00
31681;BME280;18281;51.364;9.566;2023-04-27T04:39:33;100398.09;;;1.23;100.00
31681;BME280;18281;51.364;9.566;2023-04-27T04:41:58;100393.84;;;1.17;100.00
31681;BME280;18281;51.364;9.566;2023-04-27T04:44:24;100388.63;;;1.20;100.00
31681;BME280;18281;51.364;9.566;2023-04-27T04:46:49;100401.56;;;1.20;100.00
31681;BME280;18281;51.364;9.566;2023-04-27T04:49:15;100397.25;;;1.20;100.00
31681;BME280;18281;51.364;9.566;2023-04-27T04:51:41;100402.44;;;1.20;100.00
31681;BME280;18281;51.364;9.566;2023-04-27T04:54:07;100403.28;;;1.19;100.00
31681;BME280;18281;51.364;9.566;2023-04-27T04:56:32;100399.84;;;1.20;100.00
31681;BME280;18281;51.364;9.566;2023-04-27T04:58:58;100399.84;;;1.20;100.00
31681;BME280;18281;51.364;9.566;2023-04-27T05:01:23;100402.44;;;1.20;100.00
31681;BME280;18281;51.364;9.566;2023-04-27T05:03:49;100405.00;;;1.22;100.00
31681;BME280;18281;51.364;9.566;2023-04-27T05:06:14;100408.44;;;1.23;100.00
31681;BME280;18281;51.364;9.566;2023-04-27T05:08:39;100415.31;;;1.25;100.00
31681;BME280;18281;51.364;9.566;2023-04-27T05:11:05;100417.03;;;1.25;100.00
31681;BME280;18281;51.364;9.566;2023-04-27T05:13:30;100410.09;;;1.27;100.00
31681;BME280;18281;51.364;9.566;2023-04-27T05:15:56;100421.31;;;1.29;100.00
31681;BME280;18281;51.364;9.566;2023-04-27T05:18:22;100421.28;;;1.30;100.00
31681;BME280;18281;51.364;9.566;2023-04-27T05:20:47;100430.78;;;1.31;100.00
31681;BME280;18281;51.364;9.566;2023-04-27T05:23:13;100435.91;;;1.33;100.00
31681;BME280;18281;51.364;9.566;2023-04-27T05:25:38;100434.16;;;1.36;100.00
31681;BME280;18281;51.364;9.566;2023-04-27T05:28:07;100433.28;;;1.37;100.00
31681;BME280;18281;51.364;9.566;2023-04-27T05:30:33;100439.31;;;1.40;100.00
31681;BME280;18281;51.364;9.566;2023-04-27T05:32:59;100445.25;;;1.48;100.00
31681;BME280;18281;51.364;9.566;2023-04-27T05:35:24;100445.25;;;2.18;100.00
31681;BME280;18281;51.364;9.566;2023-04-27T05:37:49;100443.31;;;2.88;100.00
31681;BME280;18281;51.364;9.566;2023-04-27T05:40:15;100444.09;;;2.94;100.00
31681;BME280;18281;51.364;9.566;2023-04-27T05:42:40;100446.84;;;2.84;100.00
31681;BME280;18281;51.364;9.566;2023-04-27T05:45:06;100445.44;;;2.66;100.00
31681;BME280;18281;51.364;9.566;2023-04-27T05:47:32;100456.09;;;2.45;100.00
31681;BME280;18281;51.364;9.566;2023-04-27T05:49:57;100450.25;;;2.32;100.00
31681;BME280;18281;51.364;9.566;2023-04-27T05:52:22;100458.19;;;2.19;100.00
31681;BME280;18281;51.364;9.566;2023-04-27T05:54:53;100460.00;;;2.14;100.00
31681;BME280;18281;51.364;9.566;2023-04-27T05:57:19;100460.88;;;2.12;100.00
31681;BME280;18281;51.364;9.566;2023-04-27T05:59:44;100466.13;;;2.07;100.00
31681;BME280;18281;51.364;9.566;2023-04-27T06:02:10;100462.66;;;2.08;100.00
31681;BME280;18281;51.364;9.566;2023-04-27T06:04:35;100471.31;;;2.09;100.00
31681;BME280;18281;51.364;9.566;2023-04-27T06:07:06;100463.47;;;2.12;100.00
31681;BME280;18281;51.364;9.566;2023-04-27T06:09:31;100467.00;;;2.08;100.00
31681;BME280;18281;51.364;9.566;2023-04-27T06:11:56;100466.06;;;2.12;100.00
31681;BME280;18281;51.364;9.566;2023-04-27T06:14:27;100463.41;;;2.16;100.00
31681;BME280;18281;51.364;9.566;2023-04-27T06:16:53;100467.66;;;2.20;100.00
31681;BME280;18281;51.364;9.566;2023-04-27T06:19:18;100463.38;;;2.19;100.00
31681;BME280;18281;51.364;9.566;2023-04-27T06:21:43;100468.50;;;2.24;100.00
31681;BME280;18281;51.364;9.566;2023-04-27T06:24:09;100470.94;;;2.33;100.00
31681;BME280;18281;51.364;9.566;2023-04-27T06:26:34;100463.94;;;2.40;100.00
31681;BME280;18281;51.364;9.566;2023-04-27T06:29:00;100466.41;;;2.49;100.00
31681;BME280;18281;51.364;9.566;2023-04-27T06:31:27;100472.34;;;2.58;100.00
31681;BME280;18281;51.364;9.566;2023-04-27T06:33:52;100462.66;;;2.67;100.00
31681;BME280;18281;51.364;9.566;2023-04-27T06:36:18;100465.25;;;2.69;99.42
31681;BME280;18281;51.364;9.566;2023-04-27T06:38:43;100468.44;;;2.86;98.28
31681;BME280;18281;51.364;9.566;2023-04-27T06:41:08;100471.75;;;2.95;98.62
31681;BME280;18281;51.364;9.566;2023-04-27T06:43:34;100474.28;;;2.98;98.11
31681;BME280;18281;51.364;9.566;2023-04-27T06:45:59;100467.38;;;3.50;98.71
31681;BME280;18281;51.364;9.566;2023-04-27T06:48:25;100465.34;;;4.08;90.42
31681;BME280;18281;51.364;9.566;2023-04-27T06:50:50;100456.13;;;4.71;87.00
31681;BME280;18281;51.364;9.566;2023-04-27T06:53:16;100461.88;;;4.08;87.62
31681;BME280;18281;51.364;9.566;2023-04-27T06:55:41;100468.44;;;3.83;91.04
31681;BME280;18281;51.364;9.566;2023-04-27T06:58:07;100474.50;;;3.84;91.64
31681;BME280;18281;51.364;9.566;2023-04-27T07:00:33;100464.84;;;4.69;90.90
31681;BME280;18281;51.364;9.566;2023-04-27T07:02:58;100461.16;;;4.79;87.69
31681;BME280;18281;51.364;9.566;2023-04-27T07:05:23;100459.97;;;4.56;86.96
31681;BME280;18281;51.364;9.566;2023-04-27T07:07:49;100466.72;;;4.25;89.16
31681;BME280;18281;51.364;9.566;2023-04-27T07:10:14;100465.13;;;4.17;89.90
31681;BME280;18281;51.364;9.566;2023-04-27T07:12:41;100476.75;;;4.01;89.80
31681;BME280;18281;51.364;9.566;2023-04-27T07:15:08;100471.47;;;4.05;90.40
31681;BME280;18281;51.364;9.566;2023-04-27T07:17:33;100472.06;;;4.18;89.70
31681;BME280;18281;51.364;9.566;2023-04-27T07:20:00;100466.00;;;4.18;89.43
31681;BME280;18281;51.364;9.566;2023-04-27T07:22:26;100462.13;;;4.36;89.19
31681;BME280;18281;51.364;9.566;2023-04-27T07:24:52;100463.78;;;4.40;89.29
31681;BME280;18281;51.364;9.566;2023-04-27T07:27:18;100474.94;;;4.45;89.06
31681;BME280;18281;51.364;9.566;2023-04-27T07:29:44;100465.38;;;4.47;87.36
31681;BME280;18281;51.364;9.566;2023-04-27T07:32:09;100465.22;;;4.53;86.85
31681;BME280;18281;51.364;9.566;2023-04-27T07:34:35;100464.03;;;4.67;85.64
31681;BME280;18281;51.364;9.566;2023-04-27T07:37:00;100475.31;;;4.67;86.01
31681;BME280;18281;51.364;9.566;2023-04-27T07:39:28;100469.81;;;4.80;85.35
31681;BME280;18281;51.364;9.566;2023-04-27T07:41:54;100459.25;;;4.86;83.71
31681;BME280;18281;51.364;9.566;2023-04-27T07:44:19;100467.03;;;4.87;82.64
31681;BME280;18281;51.364;9.566;2023-04-27T07:46:46;100466.94;;;4.90;83.86
31681;BME280;18281;51.364;9.566;2023-04-27T07:49:13;100465.66;;;5.07;83.82
31681;BME280;18281;51.364;9.566;2023-04-27T07:51:39;100473.50;;;5.05;83.41
31681;BME280;18281;51.364;9.566;2023-04-27T07:54:04;100479.38;;;5.14;83.71
31681;BME280;18281;51.364;9.566;2023-04-27T07:56:31;100473.00;;;5.26;83.05
31681;BME280;18281;51.364;9.566;2023-04-27T07:58:57;100475.41;;;5.33;81.92
31681;BME280;18281;51.364;9.566;2023-04-27T08:01:22;100475.72;;;5.55;81.11
31681;BME280;18281;51.364;9.566;2023-04-27T08:03:47;100471.16;;;5.64;78.97
31681;BME280;18281;51.364;9.566;2023-04-27T08:06:13;100464.06;;;5.69;78.42
31681;BME280;18281;51.364;9.566;2023-04-27T08:08:38;100471.44;;;5.84;79.62
31681;BME280;18281;51.364;9.566;2023-04-27T08:11:03;100461.03;;;5.84;79.25
31681;BME280;18281;51.364;9.566;2023-04-27T08:13:29;100466.75;;;5.97;79.22
31681;BME280;18281;51.364;9.566;2023-04-27T08:15:55;100460.94;;;5.87;78.70
31681;BME280;18281;51.364;9.566;2023-04-27T08:18:23;100451.56;;;6.10;79.27
31681;BME280;18281;51.364;9.566;2023-04-27T08:20:48;100452.13;;;6.21;79.12
31681;BME280;18281;51.364;9.566;2023-04-27T08:23:14;100449.97;;;6.36;78.71
31681;BME280;18281;51.364;9.566;2023-04-27T08:25:39;100448.75;;;6.46;78.83
31681;BME280;18281;51.364;9.566;2023-04-27T08:28:05;100433.03;;;6.49;79.81
31681;BME280;18281;51.364;9.566;2023-04-27T08:30:30;100436.59;;;6.45;79.31
31681;BME280;18281;51.364;9.566;2023-04-27T08:32:55;100444.97;;;6.56;80.07
31681;BME280;18281;51.364;9.566;2023-04-27T08:35:21;100438.69;;;6.62;79.46
31681;BME280;18281;51.364;9.566;2023-04-27T08:37:46;100446.47;;;6.64;80.09
31681;BME280;18281;51.364;9.566;2023-04-27T08:40:12;100443.72;;;6.68;80.42
31681;BME280;18281;51.364;9.566;2023-04-27T08:42:39;100441.94;;;6.69;80.78
31681;BME280;18281;51.364;9.566;2023-04-27T08:45:06;100438.28;;;6.74;81.24
31681;BME280;18281;51.364;9.566;2023-04-27T08:47:32;100437.19;;;6.82;80.82
31681;BME280;18281;51.364;9.566;2023-04-27T08:49:58;100450.25;;;6.82;81.01
31681;BME280;18281;51.364;9.566;2023-04-27T08:52:23;100441.53;;;6.81;81.38
31681;BME280;18281;51.364;9.566;2023-04-27T08:54:49;100438.78;;;6.86;81.65
31681;BME280;18281;51.364;9.566;2023-04-27T08:57:14;100439.38;;;6.94;85.37
31681;BME280;18281;51.364;9.566;2023-04-27T08:59:40;100442.00;;;7.21;92.93
31681;BME280;18281;51.364;9.566;2023-04-27T09:02:17;100440.63;;;7.60;94.48
31681;BME280;18281;51.364;9.566;2023-04-27T09:04:43;100441.22;;;7.91;92.20
31681;BME280;18281;51.364;9.566;2023-04-27T09:07:16;100437.44;;;8.22;87.17
31681;BME280;18281;51.364;9.566;2023-04-27T09:09:42;100434.44;;;8.32;85.20
31681;BME280;18281;51.364;9.566;2023-04-27T09:12:19;100436.84;;;8.38;83.80
31681;BME280;18281;51.364;9.566;2023-04-27T09:15:02;100439.53;;;8.58;81.87
31681;BME280;18281;51.364;9.566;2023-04-27T09:17:28;100431.78;;;8.78;80.14
31681;BME280;18281;51.364;9.566;2023-04-27T09:20:04;100435.84;;;9.05;78.01
31681;BME280;18281;51.364;9.566;2023-04-27T09:23:06;100438.16;;;9.13;76.99
31681;BME280;18281;51.364;9.566;2023-04-27T09:25:32;100435.13;;;9.22;75.90
31681;BME280;18281;51.364;9.566;2023-04-27T09:27:58;100425.13;;;9.51;74.88
31681;BME280;18281;51.364;9.566;2023-04-27T09:30:28;100427.91;;;9.48;74.02
31681;BME280;18281;51.364;9.566;2023-04-27T09:32:55;100434.06;;;9.47;74.09
31681;BME280;18281;51.364;9.566;2023-04-27T09:35:26;100441.78;;;9.50;73.53
31681;BME280;18281;51.364;9.566;2023-04-27T09:37:54;100435.38;;;9.57;73.04
31681;BME280;18281;51.364;9.566;2023-04-27T09:40:20;100432.03;;;9.94;71.85
31681;BME280;18281;51.364;9.566;2023-04-27T09:42:50;100439.38;;;9.85;72.23
31681;BME280;18281;51.364;9.566;2023-04-27T09:45:16;100431.88;;;9.78;73.09
31681;BME280;18281;51.364;9.566;2023-04-27T09:47:43;100432.38;;;9.67;71.77
31681;BME280;18281;51.364;9.566;2023-04-27T09:50:11;100429.13;;;9.60;74.04
31681;BME280;18281;51.364;9.566;2023-04-27T09:52:36;100420.63;;;9.55;74.43
31681;BME280;18281;51.364;9.566;2023-04-27T09:55:02;100411.88;;;9.54;75.91
31681;BME280;18281;51.364;9.566;2023-04-27T09:57:45;100421.28;;;9.39;71.46
31681;BME280;18281;51.364;9.566;2023-04-27T10:05:42;100419.88;;;9.32;71.75
31681;BME280;18281;51.364;9.566;2023-04-27T10:08:12;100410.22;;;9.33;73.42
31681;BME280;18281;51.364;9.566;2023-04-27T10:10:46;100413.13;;;9.27;74.66
31681;BME280;18281;51.364;9.566;2023-04-27T10:13:22;100417.81;;;9.39;76.07
31681;BME280;18281;51.364;9.566;2023-04-27T10:15:48;100413.66;;;9.35;76.37
31681;BME280;18281;51.364;9.566;2023-04-27T10:18:24;100415.22;;;9.39;76.66
31681;BME280;18281;51.364;9.566;2023-04-27T10:20:50;100421.97;;;9.24;70.04
31681;BME280;18281;51.364;9.566;2023-04-27T10:23:26;100413.94;;;9.48;73.45
31681;BME280;18281;51.364;9.566;2023-04-27T10:25:54;100421.34;;;9.38;68.87
31681;BME280;18281;51.364;9.566;2023-04-27T10:28:36;100413.09;;;9.47;67.86
31681;BME280;18281;51.364;9.566;2023-04-27T10:31:08;100408.28;;;9.57;67.92
31681;BME280;18281;51.364;9.566;2023-04-27T10:33:41;100400.75;;;9.49;63.83
31681;BME280;18281;51.364;9.566;2023-04-27T10:36:13;100410.97;;;9.55;68.14
31681;BME280;18281;51.364;9.566;2023-04-27T10:38:39;100398.41;;;9.64;71.70
31681;BME280;18281;51.364;9.566;2023-04-27T10:41:12;100402.31;;;9.74;70.32
31681;BME280;18281;51.364;9.566;2023-04-27T10:43:38;100402.53;;;9.88;70.19
31681;BME280;18281;51.364;9.566;2023-04-27T10:48:33;100386.94;;;10.04;71.29
31681;BME280;18281;51.364;9.566;2023-04-27T10:51:00;100385.53;;;10.15;69.89
31681;BME280;18281;51.364;9.566;2023-04-27T10:53:25;100378.09;;;10.24;72.37
31681;BME280;18281;51.364;9.566;2023-04-27T10:55:54;100378.66;;;10.31;70.73
31681;BME280;18281;51.364;9.566;2023-04-27T10:58:23;100385.22;;;10.40;69.52
31681;BME280;18281;51.364;9.566;2023-04-27T11:00:49;100373.16;;;10.36;68.85
31681;BME280;18281;51.364;9.566;2023-04-27T11:03:18;100371.00;;;10.44;68.50
31681;BME280;18281;51.364;9.566;2023-04-27T11:05:46;100374.59;;;10.61;69.04
31681;BME280;18281;51.364;9.566;2023-04-27T11:08:14;100371.19;;;10.58;68.07
31681;BME280;18281;51.364;9.566;2023-04-27T11:10:48;100372.03;;;10.59;68.16
31681;BME280;18281;51.364;9.566;2023-04-27T11:13:16;100373.56;;;10.63;67.91
31681;BME280;18281;51.364;9.566;2023-04-27T11:15:55;100371.03;;;10.62;66.54
31681;BME280;18281;51.364;9.566;2023-04-27T11:18:23;100362.56;;;10.74;64.46
31681;BME280;18281;51.364;9.566;2023-04-27T11:20:50;100368.41;;;10.79;65.43
31681;BME280;18281;51.364;9.566;2023-04-27T11:23:30;100370.03;;;10.99;68.14
31681;BME280;18281;51.364;9.566;2023-04-27T11:26:20;100364.25;;;11.10;65.13
31681;BME280;18281;51.364;9.566;2023-04-27T11:29:01;100363.69;;;11.21;65.44
31681;BME280;18281;51.364;9.566;2023-04-27T11:31:43;100361.22;;;11.34;64.76
31681;BME280;18281;51.364;9.566;2023-04-27T11:36:40;100350.16;;;11.61;67.42
31681;BME280;18281;51.364;9.566;2023-04-27T11:39:06;100353.75;;;11.91;68.03
31681;BME280;18281;51.364;9.566;2023-04-27T11:41:35;100347.66;;;11.91;68.93
31681;BME280;18281;51.364;9.566;2023-04-27T11:44:05;100340.59;;;12.07;68.55
31681;BME280;18281;51.364;9.566;2023-04-27T11:46:32;100340.16;;;12.15;67.39
31681;BME280;18281;51.364;9.566;2023-04-27T11:49:01;100334.72;;;12.18;67.04
31681;BME280;18281;51.364;9.566;2023-04-27T11:51:29;100332.84;;;12.20;66.58
31681;BME280;18281;51.364;9.566;2023-04-27T11:54:03;100334.38;;;12.24;66.66
31681;BME280;18281;51.364;9.566;2023-04-27T11:56:36;100334.09;;;12.29;67.04
31681;BME280;18281;51.364;9.566;2023-04-27T11:59:02;100332.50;;;12.26;67.33
31681;BME280;18281;51.364;9.566;2023-04-27T12:01:30;100330.44;;;12.32;64.47
31681;BME280;18281;51.364;9.566;2023-04-27T12:03:56;100331.13;;;12.35;65.72
31681;BME280;18281;51.364;9.566;2023-04-27T12:06:28;100329.94;;;12.25;60.10
31681;BME280;18281;51.364;9.566;2023-04-27T12:08:57;100332.97;;;12.33;62.09
31681;BME280;18281;51.364;9.566;2023-04-27T12:11:26;100334.38;;;12.24;62.91
31681;BME280;18281;51.364;9.566;2023-04-27T12:13:55;100341.22;;;12.43;64.29
31681;BME280;18281;51.364;9.566;2023-04-27T12:16:21;100334.56;;;12.21;60.26
31681;BME280;18281;51.364;9.566;2023-04-27T12:18:49;100336.97;;;12.40;63.56
31681;BME280;18281;51.364;9.566;2023-04-27T12:21:15;100338.00;;;12.38;65.91
31681;BME280;18281;51.364;9.566;2023-04-27T12:23:41;100324.47;;;12.44;63.36
31681;BME280;18281;51.364;9.566;2023-04-27T12:26:06;100320.69;;;12.64;66.01
31681;BME280;18281;51.364;9.566;2023-04-27T12:28:32;100324.09;;;12.81;65.40
31681;BME280;18281;51.364;9.566;2023-04-27T12:30:57;100324.75;;;12.84;65.36
31681;BME280;18281;51.364;9.566;2023-04-27T12:33:22;100323.44;;;13.20;63.13
31681;BME280;18281;51.364;9.566;2023-04-27T12:35:48;100332.22;;;13.06;63.71
31681;BME280;18281;51.364;9.566;2023-04-27T12:38:13;100332.31;;;13.19;62.53
31681;BME280;18281;51.364;9.566;2023-04-27T12:40:38;100328.16;;;13.30;62.08
31681;BME280;18281;51.364;9.566;2023-04-27T12:43:04;100327.06;;;13.19;63.31
31681;BME280;18281;51.364;9.566;2023-04-27T12:45:29;100331.00;;;13.26;62.14
31681;BME280;18281;51.364;9.566;2023-04-27T12:47:55;100330.91;;;13.28;62.12
31681;BME280;18281;51.364;9.566;2023-04-27T12:50:20;100333.63;;;13.26;62.57
31681;BME280;18281;51.364;9.566;2023-04-27T12:52:46;100319.72;;;13.10;62.46
31681;BME280;18281;51.364;9.566;2023-04-27T12:55:12;100319.59;;;13.12;62.67
31681;BME280;18281;51.364;9.566;2023-04-27T12:57:38;100323.56;;;13.04;62.75
31681;BME280;18281;51.364;9.566;2023-04-27T13:00:03;100320.28;;;13.15;62.04
31681;BME280;18281;51.364;9.566;2023-04-27T13:02:32;100328.19;;;13.01;56.86